createdAt,value
2019-03-30T00:02:18.155Z,102141.58
2019-03-30T00:04:49.338Z,102134.48
2019-03-30T00:07:20.452Z,102137.52
2019-03-30T00:09:54.457Z,102130.90
2019-03-30T00:12:27.757Z,102127.78
2019-03-30T00:14:59.790Z,102123.34
2019-03-30T00:17:31.394Z,102127.73
2019-03-30T00:20:03.265Z,102119.34
2019-03-30T00:22:34.288Z,102120.16
2019-03-30T00:25:05.250Z,102116.59
2019-03-30T00:27:36.108Z,102114.86
2019-03-30T00:30:07.830Z,102115.25
2019-03-30T00:32:38.646Z,102116.10
2019-03-30T00:35:09.403Z,102106.39
2019-03-30T00:37:40.136Z,102105.05
2019-03-30T00:40:10.911Z,102107.70
2019-03-30T00:42:41.605Z,102108.13
2019-03-30T00:45:12.762Z,102106.34
2019-03-30T00:47:43.486Z,102108.11
2019-03-30T00:50:14.292Z,102104.15
2019-03-30T00:52:44.960Z,102101.52
2019-03-30T00:55:15.695Z,102097.99
2019-03-30T00:57:47.345Z,102097.13
2019-03-30T01:00:18.229Z,102096.75
2019-03-30T01:02:48.986Z,102092.36
2019-03-30T01:05:19.624Z,102091.02
2019-03-30T01:07:50.372Z,102084.02
2019-03-30T01:10:21.129Z,102085.34
2019-03-30T01:12:51.892Z,102083.58
2019-03-30T01:15:22.513Z,102080.91
2019-03-30T01:17:53.263Z,102082.23
2019-03-30T01:20:23.898Z,102076.92
2019-03-30T01:22:57.325Z,102081.28
2019-03-30T01:25:28.039Z,102074.21
2019-03-30T01:27:58.752Z,102074.63
2019-03-30T01:30:29.399Z,102072.84
2019-03-30T01:33:00.096Z,102071.07
2019-03-30T01:35:30.742Z,102069.75
2019-03-30T01:38:01.463Z,102067.98
2019-03-30T01:40:32.136Z,102062.75
2019-03-30T01:43:02.832Z,102065.39
2019-03-30T01:45:33.603Z,102064.08
2019-03-30T01:48:04.403Z,102052.59
2019-03-30T01:50:35.139Z,102057.02
2019-03-30T01:53:05.830Z,102049.59
2019-03-30T01:55:36.526Z,102053.94
2019-03-30T01:58:07.226Z,102045.17
2019-03-30T02:00:38.368Z,102044.70
2019-03-30T02:03:09.078Z,102043.39
2019-03-30T02:05:39.729Z,102036.79
2019-03-30T02:08:11.536Z,102032.80
2019-03-30T02:10:45.441Z,102034.98
2019-03-30T02:13:16.177Z,102031.48
2019-03-30T02:15:46.846Z,102024.00
2019-03-30T02:18:17.535Z,102024.84
2019-03-30T02:20:48.940Z,102027.47
2019-03-30T02:23:20.718Z,102026.11
2019-03-30T02:25:51.375Z,102023.47
2019-03-30T02:28:22.080Z,102019.97
2019-03-30T02:30:52.744Z,102021.28
2019-03-30T02:33:23.428Z,102019.02
2019-03-30T02:35:54.087Z,102014.18
2019-03-30T02:38:24.762Z,102012.41
2019-03-30T02:40:55.504Z,102014.62
2019-03-30T02:43:26.242Z,102017.27
2019-03-30T02:45:56.876Z,102013.25
2019-03-30T02:48:27.568Z,102017.66
2019-03-30T02:50:59.492Z,102007.09
2019-03-30T02:53:30.146Z,102011.50
2019-03-30T02:56:00.782Z,102003.59
2019-03-30T02:58:31.455Z,102011.88
2019-03-30T03:01:02.101Z,102005.29
2019-03-30T03:03:33.341Z,102000.86
2019-03-30T03:06:04.396Z,102006.13
2019-03-30T03:08:35.099Z,101998.66
2019-03-30T03:11:05.758Z,101992.91
2019-03-30T03:13:36.481Z,101998.67
2019-03-30T03:16:07.222Z,101994.70
2019-03-30T03:18:37.951Z,101995.95
2019-03-30T03:21:09.039Z,101994.63
2019-03-30T03:23:40.016Z,101992.89
2019-03-30T03:26:10.802Z,101984.48
2019-03-30T03:28:41.512Z,101988.45
2019-03-30T03:31:12.222Z,101982.70
2019-03-30T03:33:42.954Z,101977.83
2019-03-30T03:36:13.587Z,101971.22
2019-03-30T03:38:44.274Z,101971.21
2019-03-30T03:41:14.913Z,101971.64
2019-03-30T03:43:45.588Z,101961.03
2019-03-30T03:46:16.606Z,101962.34
2019-03-30T03:48:50.315Z,101962.77
2019-03-30T03:51:26.062Z,101957.03
2019-03-30T03:53:55.898Z,101950.88
2019-03-30T03:56:28.500Z,101950.39
2019-03-30T03:59:03.220Z,101949.08
2019-03-30T04:01:35.786Z,101942.47
2019-03-30T04:04:08.584Z,101946.83
2019-03-30T04:06:41.434Z,101935.34
2019-03-30T04:09:13.706Z,101930.98
2019-03-30T04:11:46.414Z,101925.67
2019-03-30T04:14:20.392Z,101926.05
2019-03-30T04:16:51.109Z,101923.81
2019-03-30T04:19:21.792Z,101926.88
2019-03-30T04:21:52.472Z,101926.39
2019-03-30T04:24:23.158Z,101920.66
2019-03-30T04:26:53.811Z,101921.98
2019-03-30T04:29:24.494Z,101920.20
2019-03-30T04:31:55.147Z,101915.84
2019-03-30T04:34:25.899Z,101911.41
2019-03-30T04:36:56.641Z,101918.39
2019-03-30T04:39:27.331Z,101912.26
2019-03-30T04:41:58.009Z,101910.48
2019-03-30T04:44:28.699Z,101908.73
2019-03-30T04:46:59.366Z,101911.77
2019-03-30T04:49:30.068Z,101907.81
2019-03-30T04:52:00.777Z,101903.44
2019-03-30T04:54:31.613Z,101899.89
2019-03-30T04:57:02.398Z,101910.45
2019-03-30T04:59:33.086Z,101906.47
2019-03-30T05:02:03.771Z,101907.80
2019-03-30T05:04:34.475Z,101904.30
2019-03-30T05:07:05.076Z,101911.77
2019-03-30T05:09:35.863Z,101912.23
2019-03-30T05:12:06.469Z,101913.09
2019-03-30T05:14:37.235Z,101906.94
2019-03-30T05:17:07.870Z,101902.99
2019-03-30T05:19:38.645Z,101905.64
2019-03-30T05:22:12.826Z,101917.95
2019-03-30T05:24:42.806Z,101902.52
2019-03-30T05:27:13.511Z,101908.73
2019-03-30T05:29:44.164Z,101904.36
2019-03-30T05:32:14.811Z,101903.98
2019-03-30T05:34:45.502Z,101903.56
2019-03-30T05:37:16.359Z,101902.29
2019-03-30T05:39:50.317Z,101901.89
2019-03-30T05:42:23.770Z,101901.95
2019-03-30T05:44:57.656Z,101900.64
2019-03-30T05:47:26.903Z,101900.17
2019-03-30T05:49:59.928Z,101901.99
2019-03-30T05:52:30.584Z,101896.38
2019-03-30T05:55:01.315Z,101895.55
2019-03-30T05:57:32.060Z,101899.55
2019-03-30T06:00:02.831Z,101895.66
2019-03-30T06:02:35.820Z,101904.07
2019-03-30T06:05:07.154Z,101896.64
2019-03-30T06:07:38.250Z,101897.57
2019-03-30T06:10:10.065Z,101899.80
2019-03-30T06:12:43.464Z,101899.88
2019-03-30T06:15:14.126Z,101896.42
2019-03-30T06:17:45.077Z,101897.36
2019-03-30T06:20:18.787Z,101899.16
2019-03-30T06:22:51.209Z,101891.28
2019-03-30T06:25:22.168Z,101897.50
2019-03-30T06:27:52.854Z,101885.67
2019-03-30T06:30:25.052Z,101890.98
2019-03-30T06:32:55.738Z,101878.72
2019-03-30T06:35:29.850Z,101877.43
2019-03-30T06:38:07.506Z,101873.08
2019-03-30T06:40:42.122Z,101878.42
2019-03-30T06:43:12.887Z,101874.48
2019-03-30T06:45:43.566Z,101874.94
2019-03-30T06:48:14.386Z,101873.23
2019-03-30T06:50:49.874Z,101874.56
2019-03-30T06:53:25.008Z,101872.42
2019-03-30T06:55:55.706Z,101869.39
2019-03-30T06:58:26.396Z,101871.59
2019-03-30T07:00:59.370Z,101869.03
2019-03-30T07:03:29.728Z,101871.68
2019-03-30T07:06:02.710Z,101872.18
2019-03-30T07:08:35.557Z,101870.86
2019-03-30T07:11:20.208Z,101863.84
2019-03-30T07:13:40.588Z,101870.03
2019-03-30T07:16:11.401Z,101865.65
2019-03-30T07:18:43.913Z,101864.77
2019-03-30T07:21:14.601Z,101869.22
2019-03-30T07:23:45.316Z,101867.48
2019-03-30T07:26:16.007Z,101857.33
2019-03-30T07:28:47.278Z,101851.16
2019-03-30T07:31:18.217Z,101856.02
2019-03-30T07:33:51.720Z,101848.96
2019-03-30T07:36:25.176Z,101855.15
2019-03-30T07:38:57.978Z,101847.17
2019-03-30T07:41:29.189Z,101854.27
2019-03-30T07:43:59.911Z,101845.40
2019-03-30T07:46:30.653Z,101842.30
2019-03-30T07:49:04.443Z,101842.72
2019-03-30T07:51:35.572Z,101845.34
2019-03-30T07:54:06.360Z,101845.74
2019-03-30T07:56:37.348Z,101839.55
2019-03-30T07:59:08.105Z,101840.88
2019-03-30T08:01:38.832Z,101841.70
2019-03-30T08:04:09.713Z,101842.50
2019-03-30T08:06:40.444Z,101827.45
2019-03-30T08:09:11.732Z,101833.59
2019-03-30T08:11:42.415Z,101830.02
2019-03-30T08:14:13.135Z,101836.14
2019-03-30T08:16:43.922Z,101823.72
2019-03-30T08:19:14.599Z,101826.77
2019-03-30T08:21:45.331Z,101829.75
2019-03-30T08:24:15.997Z,101830.52
2019-03-30T08:26:46.721Z,101826.84
2019-03-30T08:29:18.199Z,101826.75
2019-03-30T08:31:50.149Z,101822.20
2019-03-30T08:34:21.995Z,101820.28
2019-03-30T08:36:52.678Z,101822.00
2019-03-30T08:39:23.385Z,101822.38
2019-03-30T08:41:54.045Z,101820.46
2019-03-30T08:44:24.718Z,101827.83
2019-03-30T08:46:55.467Z,101824.13
2019-03-30T08:49:26.168Z,101824.47
2019-03-30T08:51:56.904Z,101826.58
2019-03-30T08:54:27.610Z,101823.36
2019-03-30T08:56:58.517Z,101830.74
2019-03-30T08:59:29.277Z,101822.52
2019-03-30T09:02:00.179Z,101816.22
2019-03-30T09:04:30.983Z,101819.37
2019-03-30T09:07:03.271Z,101815.70
2019-03-30T09:09:33.999Z,101816.84
2019-03-30T09:12:04.803Z,101809.66
2019-03-30T09:14:36.591Z,101803.73
2019-03-30T09:17:07.258Z,101801.04
2019-03-30T09:19:37.938Z,101808.10
2019-03-30T09:22:08.655Z,101801.44
2019-03-30T09:24:39.344Z,101796.48
2019-03-30T09:27:10.014Z,101801.57
2019-03-30T09:29:40.752Z,101799.31
2019-03-30T09:32:14.770Z,101796.24
2019-03-30T09:34:43.847Z,101788.39
2019-03-30T09:37:14.566Z,101783.29
2019-03-30T09:39:45.369Z,101787.15
2019-03-30T09:42:16.130Z,101788.91
2019-03-30T09:44:46.859Z,101776.03
2019-03-30T09:47:17.659Z,101778.38
2019-03-30T09:49:48.440Z,101770.83
2019-03-30T09:52:19.271Z,101766.00
2019-03-30T09:54:49.942Z,101761.10
2019-03-30T09:57:20.877Z,101755.26
2019-03-30T09:59:51.568Z,101752.86
2019-03-30T10:02:22.261Z,101749.37
2019-03-30T10:04:53.044Z,101747.52
2019-03-30T10:07:23.825Z,101743.82
2019-03-30T10:09:54.511Z,101741.19
2019-03-30T10:12:25.142Z,101739.96
2019-03-30T10:14:55.838Z,101729.84
2019-03-30T10:17:26.545Z,101735.36
2019-03-30T10:20:04.111Z,101729.48
2019-03-30T10:22:30.164Z,101731.33
2019-03-30T10:25:00.930Z,101717.02
2019-03-30T10:27:31.549Z,101723.88
2019-03-30T10:30:02.282Z,101719.28
2019-03-30T10:32:33.002Z,101717.66
2019-03-30T10:35:03.663Z,101724.19
2019-03-30T10:37:35.324Z,101719.03
2019-03-30T10:40:06.774Z,101716.98
2019-03-30T10:42:37.506Z,101716.74
2019-03-30T10:45:09.958Z,101714.54
2019-03-30T10:47:40.816Z,101712.78
2019-03-30T10:50:11.633Z,101707.61
2019-03-30T10:52:42.282Z,101697.98
2019-03-30T10:55:13.934Z,101694.45
2019-03-30T10:57:44.684Z,101686.48
2019-03-30T11:00:21.330Z,101685.96
2019-03-30T11:02:52.058Z,101682.81
2019-03-30T11:05:22.822Z,101677.80
2019-03-30T11:07:54.564Z,101673.12
2019-03-30T11:10:25.297Z,101671.16
2019-03-30T11:12:55.979Z,101670.58
2019-03-30T11:15:26.650Z,101666.91
2019-03-30T11:17:57.342Z,101661.09
2019-03-30T11:20:28.070Z,101660.66
2019-03-30T11:22:58.768Z,101664.55
2019-03-30T11:25:29.694Z,101656.96
2019-03-30T11:28:00.389Z,101653.00
2019-03-30T11:30:31.163Z,101655.82
2019-03-30T11:33:01.938Z,101647.91
2019-03-30T11:35:32.566Z,101650.28
2019-03-30T11:38:03.274Z,101645.25
2019-03-30T11:40:34.035Z,101634.65
2019-03-30T11:43:04.686Z,101632.89
2019-03-30T11:45:36.930Z,101623.47
2019-03-30T11:48:07.802Z,101626.32
2019-03-30T11:50:40.184Z,101620.90
2019-03-30T11:53:10.919Z,101612.17
2019-03-30T11:55:41.662Z,101614.92
2019-03-30T11:58:12.655Z,101610.09
2019-03-30T12:00:43.383Z,101600.95
2019-03-30T12:03:14.218Z,101599.19
2019-03-30T12:05:45.493Z,101593.11
2019-03-30T12:08:17.314Z,101600.16
2019-03-30T12:10:48.782Z,101587.20
2019-03-30T12:13:19.475Z,101581.64
2019-03-30T12:15:51.589Z,101577.47
2019-03-30T12:18:24.520Z,101577.36
2019-03-30T12:20:56.596Z,101571.11
2019-03-30T12:23:27.268Z,101577.02
2019-03-30T12:25:57.949Z,101566.30
2019-03-30T12:28:28.610Z,101571.01
2019-03-30T12:31:01.934Z,101561.19
2019-03-30T12:33:32.840Z,101561.45
2019-03-30T12:36:03.546Z,101552.19
2019-03-30T12:38:35.064Z,101541.16
2019-03-30T12:41:09.623Z,101534.52
2019-03-30T12:43:40.512Z,101532.59
2019-03-30T12:46:15.880Z,101542.32
2019-03-30T12:48:46.998Z,101530.84
2019-03-30T12:51:17.964Z,101539.42
2019-03-30T12:53:50.818Z,101524.09
2019-03-30T12:56:21.883Z,101524.52
2019-03-30T12:58:55.556Z,101526.72
2019-03-30T13:01:26.979Z,101524.21
2019-03-30T13:03:58.978Z,101518.22
2019-03-30T13:06:30.307Z,101514.59
2019-03-30T13:09:05.457Z,101511.44
2019-03-30T13:11:36.265Z,101513.22
2019-03-30T13:14:07.091Z,101511.45
2019-03-30T13:16:39.317Z,101505.08
2019-03-30T13:19:10.565Z,101502.29
2019-03-30T13:21:52.299Z,101499.27
2019-03-30T13:24:14.025Z,101499.61
2019-03-30T13:26:47.639Z,101498.60
2019-03-30T13:29:18.676Z,101497.20
2019-03-30T13:31:54.736Z,101500.03
2019-03-30T13:34:27.811Z,101493.00
2019-03-30T13:36:59.265Z,101491.89
2019-03-30T13:39:30.665Z,101491.66
2019-03-30T13:42:01.798Z,101486.91
2019-03-30T13:44:33.407Z,101484.34
2019-03-30T13:47:05.258Z,101486.78
2019-03-30T13:49:38.771Z,101474.77
2019-03-30T13:52:09.615Z,101469.03
2019-03-30T13:54:40.426Z,101468.96
2019-03-30T13:57:15.445Z,101464.50
2019-03-30T13:59:50.097Z,101460.47
2019-03-30T14:02:24.640Z,101457.98
2019-03-30T14:04:55.874Z,101456.16
2019-03-30T14:07:27.512Z,101454.67
2019-03-30T14:09:58.853Z,101443.53
2019-03-30T14:12:31.185Z,101443.27
2019-03-30T14:15:02.324Z,101441.71
2019-03-30T14:17:36.311Z,101444.42
2019-03-30T14:20:08.168Z,101440.87
2019-03-30T14:22:39.458Z,101437.86
2019-03-30T14:25:10.584Z,101435.14
2019-03-30T14:27:42.453Z,101430.95
2019-03-30T14:30:14.437Z,101426.56
2019-03-30T14:32:50.056Z,101418.24
2019-03-30T14:35:23.126Z,101419.39
2019-03-30T14:37:54.338Z,101408.52
2019-03-30T14:40:25.548Z,101414.88
2019-03-30T14:42:56.726Z,101416.45
2019-03-30T14:45:29.515Z,101409.04
2019-03-30T14:48:00.544Z,101412.69
2019-03-30T14:50:35.962Z,101407.24
2019-03-30T14:53:09.840Z,101408.50
2019-03-30T14:55:41.046Z,101409.16
2019-03-30T14:58:18.963Z,101407.14
2019-03-30T15:00:48.393Z,101402.85
2019-03-30T15:03:19.371Z,101401.58
2019-03-30T15:05:50.453Z,101401.66
2019-03-30T15:08:26.056Z,101399.76
2019-03-30T15:10:59.456Z,101393.56
2019-03-30T15:13:30.490Z,101401.21
2019-03-30T15:16:01.484Z,101397.48
2019-03-30T15:18:33.839Z,101398.48
2019-03-30T15:21:09.477Z,101393.12
2019-03-30T15:23:40.589Z,101392.11
2019-03-30T15:26:11.752Z,101393.89
2019-03-30T15:28:44.401Z,101397.16
2019-03-30T15:31:15.469Z,101393.48
2019-03-30T15:33:53.559Z,101391.33
2019-03-30T15:36:26.464Z,101388.27
2019-03-30T15:38:58.246Z,101388.53
2019-03-30T15:41:32.219Z,101398.05
2019-03-30T15:44:05.057Z,101388.55
2019-03-30T15:46:36.819Z,101394.98
2019-03-30T15:49:09.804Z,101387.94
2019-03-30T15:51:41.870Z,101387.86
2019-03-30T15:54:12.847Z,101389.38
2019-03-30T15:56:47.655Z,101383.55
2019-03-30T15:59:18.778Z,101389.55
2019-03-30T16:01:49.767Z,101390.20
2019-03-30T16:04:20.685Z,101387.73
2019-03-30T16:06:51.675Z,101392.23
2019-03-30T16:09:23.226Z,101391.34
2019-03-30T16:11:54.134Z,101394.64
2019-03-30T16:14:25.258Z,101400.27
2019-03-30T16:16:56.115Z,101403.86
2019-03-30T16:19:27.139Z,101408.11
2019-03-30T16:21:58.374Z,101406.02
2019-03-30T16:24:30.191Z,101401.72
2019-03-30T16:27:03.378Z,101396.32
2019-03-30T16:29:34.507Z,101402.28
2019-03-30T16:32:05.510Z,101397.92
2019-03-30T16:34:36.536Z,101396.22
2019-03-30T16:37:07.739Z,101400.17
2019-03-30T16:39:38.800Z,101394.42
2019-03-30T16:42:12.321Z,101395.49
2019-03-30T16:44:44.081Z,101398.59
2019-03-30T16:47:15.035Z,101396.97
2019-03-30T16:49:46.082Z,101397.92
2019-03-30T16:52:17.563Z,101402.60
2019-03-30T16:54:50.653Z,101403.95
2019-03-30T16:57:22.683Z,101404.48
2019-03-30T16:59:54.067Z,101398.84
2019-03-30T17:02:26.454Z,101398.59
2019-03-30T17:04:57.441Z,101395.91
2019-03-30T17:07:28.407Z,101395.30
2019-03-30T17:09:59.241Z,101399.17
2019-03-30T17:12:30.163Z,101398.72
2019-03-30T17:15:01.091Z,101402.91
2019-03-30T17:17:32.325Z,101403.19
2019-03-30T17:20:05.105Z,101401.55
2019-03-30T17:22:36.106Z,101395.58
2019-03-30T17:25:08.195Z,101402.84
2019-03-30T17:27:39.275Z,101404.20
2019-03-30T17:30:10.698Z,101409.98
2019-03-30T17:32:41.787Z,101404.95
2019-03-30T17:35:12.513Z,101411.00
2019-03-30T17:37:44.609Z,101403.42
2019-03-30T17:40:15.659Z,101406.81
2019-03-30T17:42:46.625Z,101407.11
2019-03-30T17:45:17.855Z,101411.89
2019-03-30T17:47:48.838Z,101417.89
2019-03-30T17:50:19.964Z,101414.91
2019-03-30T17:52:51.404Z,101414.38
2019-03-30T17:55:34.104Z,101421.77
2019-03-30T17:58:12.962Z,101423.80
2019-03-30T18:00:35.653Z,101423.16
2019-03-30T18:03:07.461Z,101427.33
2019-03-30T18:05:39.956Z,101428.53
2019-03-30T18:08:12.075Z,101430.03
2019-03-30T18:10:43.035Z,101431.47
2019-03-30T18:13:14.575Z,101435.57
2019-03-30T18:15:45.370Z,101425.97
2019-03-30T18:18:18.316Z,101436.50
2019-03-30T18:20:49.051Z,101438.27
2019-03-30T18:23:19.890Z,101440.13
2019-03-30T18:25:50.641Z,101442.97
2019-03-30T18:28:27.256Z,101448.48
2019-03-30T18:30:56.122Z,101450.48
2019-03-30T18:33:27.173Z,101451.16
2019-03-30T18:35:58.584Z,101450.05
2019-03-30T18:38:29.944Z,101452.47
2019-03-30T18:41:00.819Z,101455.32
2019-03-30T18:43:31.958Z,101461.73
2019-03-30T18:46:02.987Z,101460.19
2019-03-30T18:48:35.722Z,101466.16
2019-03-30T18:51:10.148Z,101468.05
2019-03-30T18:53:41.336Z,101464.27
2019-03-30T18:56:12.342Z,101471.48
2019-03-30T18:58:44.686Z,101469.80
2019-03-30T19:01:15.471Z,101472.66
2019-03-30T19:03:47.041Z,101472.78
2019-03-30T19:06:18.231Z,101471.49
2019-03-30T19:08:49.205Z,101475.21
2019-03-30T19:11:20.274Z,101475.77
2019-03-30T19:13:51.640Z,101474.12
2019-03-30T19:16:22.661Z,101480.49
2019-03-30T19:18:53.980Z,101484.13
2019-03-30T19:21:24.912Z,101480.64
2019-03-30T19:23:55.840Z,101485.10
2019-03-30T19:26:26.728Z,101483.02
2019-03-30T19:29:01.605Z,101479.96
2019-03-30T19:31:40.376Z,101480.94
2019-03-30T19:34:12.034Z,101483.20
2019-03-30T19:36:43.099Z,101484.59
2019-03-30T19:39:14.282Z,101479.31
2019-03-30T19:41:45.632Z,101485.60
2019-03-30T19:44:17.028Z,101484.77
2019-03-30T19:46:48.952Z,101483.08
2019-03-30T19:49:36.636Z,101488.44
2019-03-30T19:52:20.633Z,101487.67
2019-03-30T19:54:58.169Z,101491.30
2019-03-30T19:58:00.617Z,101493.09
2019-03-30T20:00:52.490Z,101494.95
2019-03-30T20:03:34.384Z,101488.87
2019-03-30T20:06:21.435Z,101496.05
2019-03-30T20:09:03.246Z,101489.03
2019-03-30T20:11:36.910Z,101492.55
2019-03-30T20:14:09.266Z,101497.06
2019-03-30T20:16:44.545Z,101491.84
2019-03-30T20:19:17.421Z,101495.45
2019-03-30T20:21:57.299Z,101505.81
2019-03-30T20:24:39.149Z,101524.91
2019-03-30T20:27:22.971Z,101528.20
2019-03-30T20:29:59.151Z,101524.06
2019-03-30T20:32:29.861Z,101531.55
2019-03-30T20:35:00.675Z,101528.11
2019-03-30T20:37:31.560Z,101529.07
2019-03-30T20:40:02.424Z,101530.52
2019-03-30T20:42:35.536Z,101530.55
2019-03-30T20:45:08.066Z,101538.58
2019-03-30T20:47:44.342Z,101536.06
2019-03-30T20:50:17.034Z,101533.88
2019-03-30T20:52:47.777Z,101533.95
2019-03-30T20:55:18.506Z,101528.29
2019-03-30T20:57:49.210Z,101525.23
2019-03-30T21:00:20.370Z,101529.67
2019-03-30T21:02:51.221Z,101525.77
2019-03-30T21:05:25.035Z,101530.70
2019-03-30T21:07:55.872Z,101528.91
2019-03-30T21:10:26.856Z,101527.55
2019-03-30T21:12:57.540Z,101533.81
2019-03-30T21:15:28.492Z,101537.80
2019-03-30T21:18:09.084Z,101541.02
2019-03-30T21:20:44.543Z,101544.70
2019-03-30T21:23:15.333Z,101547.49
2019-03-30T21:25:46.060Z,101542.62
2019-03-30T21:28:25.121Z,101541.80
2019-03-30T21:30:58.671Z,101541.89
2019-03-30T21:33:29.499Z,101540.97
2019-03-30T21:36:00.335Z,101541.06
2019-03-30T21:38:33.391Z,101539.33
2019-03-30T21:41:04.831Z,101543.44
2019-03-30T21:43:37.381Z,101545.24
2019-03-30T21:46:14.038Z,101542.59
2019-03-30T21:48:46.802Z,101555.04
2019-03-30T21:51:18.002Z,101553.78
2019-03-30T21:53:49.990Z,101551.87
2019-03-30T21:56:21.611Z,101542.11
2019-03-30T21:58:54.033Z,101552.38
2019-03-30T22:01:25.873Z,101553.77
2019-03-30T22:03:57.046Z,101556.04
2019-03-30T22:06:28.399Z,101560.48
2019-03-30T22:09:00.652Z,101554.86
2019-03-30T22:11:36.158Z,101561.58
2019-03-30T22:14:07.926Z,101562.08
2019-03-30T22:16:39.309Z,101566.08
2019-03-30T22:19:12.525Z,101571.02
2019-03-30T22:21:46.475Z,101576.34
2019-03-30T22:24:17.921Z,101572.41
2019-03-30T22:26:51.903Z,101575.50
2019-03-30T22:29:35.715Z,101576.87
2019-03-30T22:32:08.943Z,101575.59
2019-03-30T22:34:43.628Z,101580.48
2019-03-30T22:37:16.655Z,101587.58
2019-03-30T22:39:50.591Z,101573.42
2019-03-30T22:42:28.070Z,101577.81
2019-03-30T22:45:00.505Z,101582.69
2019-03-30T22:47:31.876Z,101578.76
2019-03-30T22:50:06.511Z,101574.38
2019-03-30T22:52:39.157Z,101577.08
2019-03-30T22:55:13.145Z,101574.46
2019-03-30T22:57:46.277Z,101579.77
2019-03-30T23:00:39.621Z,101578.05
2019-03-30T23:03:15.874Z,101574.99
2019-03-30T23:05:48.985Z,101581.63
2019-03-30T23:08:19.750Z,101575.02
2019-03-30T23:10:58.251Z,101575.50
2019-03-30T23:13:28.998Z,101577.72
2019-03-30T23:15:59.862Z,101573.80
2019-03-30T23:18:32.960Z,101574.23
2019-03-30T23:21:03.721Z,101579.58
2019-03-30T23:23:34.379Z,101578.72
2019-03-30T23:26:05.111Z,101584.02
2019-03-30T23:28:36.088Z,101583.16
2019-03-30T23:31:06.856Z,101572.15
2019-03-30T23:33:37.612Z,101573.08
2019-03-30T23:36:08.503Z,101581.48
2019-03-30T23:38:39.447Z,101573.06
2019-03-30T23:41:10.130Z,101580.13
2019-03-30T23:43:41.338Z,101573.97
2019-03-30T23:46:14.742Z,101577.53
2019-03-30T23:48:45.571Z,101578.44
2019-03-30T23:51:19.465Z,101582.39
2019-03-30T23:53:51.262Z,101580.62
2019-03-30T23:56:24.962Z,101583.69
2019-03-30T23:58:55.838Z,101582.34
